createdAt,value
2022-08-08T00:00:52.540Z,17.00
2022-08-08T00:03:20.020Z,17.00
2022-08-08T00:06:03.410Z,16.90
2022-08-08T00:08:43.486Z,16.90
2022-08-08T00:12:10.093Z,16.80
2022-08-08T00:14:59.563Z,16.90
2022-08-08T00:18:01.666Z,16.90
2022-08-08T00:20:31.185Z,16.80
2022-08-08T00:23:08.032Z,16.80
2022-08-08T00:25:51.762Z,16.80
2022-08-08T00:28:34.414Z,16.80
2022-08-08T00:32:21.136Z,16.70
2022-08-08T00:34:20.063Z,16.70
2022-08-08T00:37:03.357Z,16.70
2022-08-08T00:41:09.466Z,16.60
2022-08-08T00:42:50.642Z,16.60
2022-08-08T00:45:32.567Z,16.60
2022-08-08T00:48:05.048Z,16.60
2022-08-08T00:50:40.673Z,16.50
2022-08-08T00:53:19.351Z,16.50
2022-08-08T00:55:53.227Z,16.50
2022-08-08T00:58:36.182Z,16.50
2022-08-08T01:01:37.717Z,16.50
2022-08-08T01:04:30.248Z,16.50
2022-08-08T01:07:09.409Z,16.50
2022-08-08T01:10:24.717Z,16.50
2022-08-08T01:13:43.608Z,16.40
2022-08-08T01:16:40.520Z,16.40
2022-08-08T01:19:51.967Z,16.30
2022-08-08T01:22:39.713Z,16.30
2022-08-08T01:26:11.645Z,16.30
2022-08-08T01:28:47.217Z,16.30
2022-08-08T01:32:05.668Z,16.30
2022-08-08T01:34:46.781Z,16.30
2022-08-08T01:37:51.214Z,16.30
2022-08-08T01:40:48.950Z,16.30
2022-08-08T01:43:38.472Z,16.20
2022-08-08T01:46:35.820Z,16.20
2022-08-08T01:49:37.146Z,16.20
2022-08-08T01:54:04.681Z,16.20
2022-08-08T01:56:26.535Z,16.20
2022-08-08T01:58:50.148Z,16.20
2022-08-08T02:02:03.226Z,16.10
2022-08-08T02:05:05.657Z,16.10
2022-08-08T02:07:55.336Z,16.10
2022-08-08T02:10:46.023Z,16.10
2022-08-08T02:13:53.785Z,16.10
2022-08-08T02:16:45.670Z,16.10
2022-08-08T02:19:56.914Z,16.00
2022-08-08T02:22:33.737Z,16.00
2022-08-08T02:25:07.184Z,16.00
2022-08-08T02:27:43.894Z,16.00
2022-08-08T02:30:20.947Z,16.00
2022-08-08T02:33:08.829Z,16.00
2022-08-08T02:36:03.869Z,16.00
2022-08-08T02:39:40.546Z,16.00
2022-08-08T02:42:11.420Z,16.00
2022-08-08T02:44:58.135Z,16.00
2022-08-08T02:48:02.721Z,15.90
2022-08-08T02:50:55.527Z,16.00
2022-08-08T02:53:32.312Z,16.00
2022-08-08T02:56:58.484Z,15.90
2022-08-08T02:59:57.660Z,15.90
2022-08-08T03:02:50.244Z,15.90
2022-08-08T03:05:23.579Z,15.90
2022-08-08T03:08:10.889Z,15.90
2022-08-08T03:11:25.646Z,15.90
2022-08-08T03:15:58.357Z,15.90
2022-08-08T03:16:57.363Z,15.90
2022-08-08T03:20:03.736Z,15.90
2022-08-08T03:22:43.264Z,15.90
2022-08-08T03:25:17.766Z,15.90
2022-08-08T03:27:57.708Z,15.90
2022-08-08T03:30:25.028Z,15.90
2022-08-08T03:33:55.766Z,15.90
2022-08-08T03:35:59.260Z,15.90
2022-08-08T03:38:53.438Z,15.80
2022-08-08T03:42:04.159Z,15.80
2022-08-08T03:44:02.458Z,15.80
2022-08-08T03:46:32.521Z,15.80
2022-08-08T03:49:59.090Z,15.80
2022-08-08T03:51:54.295Z,15.80
2022-08-08T03:54:41.459Z,15.80
2022-08-08T03:58:29.878Z,15.80
2022-08-08T04:00:18.624Z,15.80
2022-08-08T04:02:59.339Z,15.80
2022-08-08T04:05:35.583Z,15.80
2022-08-08T04:08:09.711Z,15.80
2022-08-08T04:10:37.371Z,15.80
2022-08-08T04:13:18.083Z,15.80
2022-08-08T04:15:54.675Z,15.80
2022-08-08T04:18:31.309Z,15.80
2022-08-08T04:20:58.046Z,15.80
2022-08-08T04:23:26.954Z,15.80
2022-08-08T04:26:14.088Z,15.80
2022-08-08T04:28:42.559Z,15.70
2022-08-08T04:31:10.943Z,15.80
2022-08-08T04:33:57.923Z,15.80
2022-08-08T04:36:26.886Z,15.80
2022-08-08T04:39:47.767Z,15.80
2022-08-08T04:41:40.822Z,15.80
2022-08-08T04:44:09.354Z,15.80
2022-08-08T04:46:36.198Z,15.80
2022-08-08T04:49:06.476Z,15.80
2022-08-08T04:51:57.325Z,15.90
2022-08-08T04:54:38.274Z,15.90
2022-08-08T04:57:09.520Z,15.90
2022-08-08T04:59:42.403Z,16.00
2022-08-08T05:02:09.723Z,15.90
2022-08-08T05:04:41.633Z,16.00
2022-08-08T05:07:11.894Z,16.00
2022-08-08T05:09:41.925Z,16.10
2022-08-08T05:12:20.530Z,16.10
2022-08-08T05:14:48.549Z,16.10
2022-08-08T05:17:15.397Z,16.20
2022-08-08T05:20:14.000Z,16.30
2022-08-08T05:22:29.987Z,16.30
2022-08-08T05:24:58.643Z,16.30
2022-08-08T05:27:25.421Z,16.40
2022-08-08T05:29:52.534Z,16.40
2022-08-08T05:32:19.695Z,16.50
2022-08-08T05:34:53.361Z,16.60
2022-08-08T05:37:52.207Z,16.60
2022-08-08T05:40:17.411Z,16.70
2022-08-08T05:42:51.833Z,16.70
2022-08-08T05:45:31.414Z,16.80
2022-08-08T05:48:09.075Z,16.80
2022-08-08T05:50:38.737Z,16.90
2022-08-08T05:53:54.800Z,17.00
2022-08-08T05:56:10.376Z,17.00
2022-08-08T05:58:57.721Z,17.10
2022-08-08T06:01:57.487Z,17.20
2022-08-08T06:04:24.326Z,17.30
2022-08-08T06:06:53.479Z,17.40
2022-08-08T06:10:00.491Z,17.40
2022-08-08T06:12:30.083Z,17.50
2022-08-08T06:15:03.268Z,17.60
2022-08-08T06:17:50.824Z,17.70
2022-08-08T06:20:26.246Z,17.70
2022-08-08T06:22:58.424Z,17.80
2022-08-08T06:26:34.921Z,17.90
2022-08-08T06:28:29.355Z,18.00
2022-08-08T06:31:00.802Z,18.00
2022-08-08T06:34:26.427Z,18.10
2022-08-08T06:36:53.978Z,18.10
2022-08-08T06:39:21.804Z,18.30
2022-08-08T06:41:57.322Z,18.30
2022-08-08T06:44:25.836Z,18.40
2022-08-08T06:46:57.720Z,18.50
2022-08-08T06:49:56.563Z,18.60
2022-08-08T06:52:11.542Z,18.70
2022-08-08T06:54:48.839Z,18.80
2022-08-08T06:57:16.141Z,18.90
2022-08-08T07:00:10.743Z,19.00
2022-08-08T07:02:33.252Z,19.10
2022-08-08T07:05:07.592Z,19.20
2022-08-08T07:07:59.857Z,19.20
2022-08-08T07:10:35.883Z,19.30
2022-08-08T07:13:10.263Z,19.30
2022-08-08T07:16:06.128Z,19.40
2022-08-08T07:18:40.516Z,19.40
2022-08-08T07:21:19.110Z,19.50
2022-08-08T07:24:03.286Z,19.60
2022-08-08T07:26:36.233Z,19.70
2022-08-08T07:29:05.617Z,19.70
2022-08-08T07:31:35.779Z,19.80
2022-08-08T07:34:08.862Z,19.80
2022-08-08T07:36:42.092Z,19.90
2022-08-08T07:39:29.598Z,20.00
2022-08-08T07:41:58.561Z,20.00
2022-08-08T07:44:40.642Z,20.00
2022-08-08T07:47:08.142Z,20.00
2022-08-08T07:49:36.262Z,20.00
2022-08-08T07:52:13.047Z,20.00
2022-08-08T07:54:51.336Z,20.00
2022-08-08T07:57:42.117Z,20.10
2022-08-08T08:00:17.120Z,20.20
2022-08-08T08:02:44.349Z,20.30
2022-08-08T08:05:33.647Z,20.40
2022-08-08T08:08:33.017Z,20.50
2022-08-08T08:11:00.090Z,20.70
2022-08-08T08:14:09.771Z,20.80
2022-08-08T08:16:41.342Z,20.90
2022-08-08T08:19:10.356Z,21.10
2022-08-08T08:21:52.820Z,21.20
2022-08-08T08:24:32.151Z,21.40
2022-08-08T08:27:02.998Z,21.50
2022-08-08T08:29:30.998Z,21.50
2022-08-08T08:31:59.214Z,21.60
2022-08-08T08:34:32.275Z,21.70
2022-08-08T08:37:07.771Z,21.70
2022-08-08T08:39:59.481Z,21.80
2022-08-08T08:42:31.471Z,21.90
2022-08-08T08:45:21.239Z,21.90
2022-08-08T08:47:53.189Z,21.80
2022-08-08T08:50:33.051Z,21.80
2022-08-08T08:53:55.068Z,21.70
2022-08-08T08:56:02.620Z,21.70
2022-08-08T08:58:42.310Z,21.60
2022-08-08T09:01:18.520Z,21.60
2022-08-08T09:03:51.436Z,21.60
2022-08-08T09:06:28.475Z,21.60
2022-08-08T09:09:26.005Z,21.60
2022-08-08T09:12:06.367Z,21.70
2022-08-08T09:14:42.859Z,21.70
2022-08-08T09:17:15.773Z,21.90
2022-08-08T09:21:56.136Z,22.10
2022-08-08T09:22:35.100Z,22.30
2022-08-08T09:25:04.186Z,22.40
2022-08-08T09:27:57.037Z,22.40
2022-08-08T09:30:20.261Z,22.30
2022-08-08T09:33:11.920Z,22.20
2022-08-08T09:35:49.347Z,22.00
2022-08-08T09:38:54.345Z,21.90
2022-08-08T09:42:13.923Z,21.80
2022-08-08T09:44:57.041Z,21.80
2022-08-08T09:48:03.021Z,21.70
2022-08-08T09:50:32.499Z,21.60
2022-08-08T09:53:23.600Z,21.50
2022-08-08T09:56:04.527Z,21.50
2022-08-08T09:58:41.798Z,21.40
2022-08-08T10:01:15.022Z,21.30
2022-08-08T10:04:04.950Z,21.30
2022-08-08T10:06:35.688Z,21.50
2022-08-08T10:09:04.886Z,21.70
2022-08-08T10:12:26.446Z,22.00
2022-08-08T10:14:38.735Z,22.30
2022-08-08T10:17:38.500Z,22.60
2022-08-08T10:20:00.118Z,22.70
2022-08-08T10:22:29.912Z,22.80
2022-08-08T10:25:04.870Z,22.90
2022-08-08T10:27:42.138Z,22.90
2022-08-08T10:30:16.169Z,22.80
2022-08-08T10:33:00.457Z,22.70
2022-08-08T10:36:09.783Z,22.50
2022-08-08T10:38:21.887Z,22.40
2022-08-08T10:40:54.626Z,22.40
2022-08-08T10:43:23.068Z,22.60
2022-08-08T10:45:56.411Z,22.80
2022-08-08T10:48:55.947Z,23.00
2022-08-08T10:51:26.170Z,22.90
2022-08-08T10:53:57.247Z,22.90
2022-08-08T10:56:27.384Z,22.80
2022-08-08T10:59:00.287Z,22.90
2022-08-08T11:01:33.351Z,22.90
2022-08-08T11:04:02.511Z,22.90
2022-08-08T11:06:34.188Z,22.90
2022-08-08T11:09:15.050Z,23.00
2022-08-08T11:12:05.023Z,23.00
2022-08-08T11:14:33.280Z,22.90
2022-08-08T11:17:02.980Z,23.00
2022-08-08T11:19:33.638Z,23.20
2022-08-08T11:22:03.984Z,23.30
2022-08-08T11:24:35.740Z,23.50
2022-08-08T11:27:19.702Z,23.60
2022-08-08T11:30:19.316Z,23.80
2022-08-08T11:32:41.903Z,23.80
2022-08-08T11:35:25.013Z,23.70
2022-08-08T11:38:39.664Z,23.60
2022-08-08T11:40:52.663Z,23.60
2022-08-08T11:43:21.665Z,23.60
2022-08-08T11:46:17.855Z,23.60
2022-08-08T11:48:39.835Z,23.70
2022-08-08T11:51:38.411Z,23.80
2022-08-08T11:54:01.431Z,24.00
2022-08-08T11:56:42.166Z,24.20
2022-08-08T11:59:11.112Z,24.20
2022-08-08T12:01:38.733Z,24.30
2022-08-08T12:04:08.038Z,24.30
2022-08-08T12:06:34.998Z,24.50
2022-08-08T12:09:09.592Z,24.60
2022-08-08T12:11:44.223Z,24.60
2022-08-08T12:14:29.338Z,24.60
2022-08-08T12:16:57.191Z,24.70
2022-08-08T12:19:37.889Z,24.80
2022-08-08T12:22:13.461Z,24.90
2022-08-08T12:24:53.745Z,24.90
2022-08-08T12:27:26.389Z,24.70
2022-08-08T12:29:59.969Z,24.80
2022-08-08T12:32:31.311Z,24.90
2022-08-08T12:35:13.453Z,24.90
2022-08-08T12:38:00.955Z,24.90
2022-08-08T12:40:55.963Z,25.00
2022-08-08T12:43:32.683Z,25.10
2022-08-08T12:46:19.011Z,25.10
2022-08-08T12:51:58.596Z,25.20
2022-08-08T12:54:40.864Z,25.20
2022-08-08T12:57:24.232Z,25.10
2022-08-08T13:00:06.267Z,25.20
2022-08-08T13:02:51.228Z,25.20
2022-08-08T13:05:27.084Z,25.20
2022-08-08T13:08:16.855Z,25.20
2022-08-08T13:10:58.490Z,25.20
2022-08-08T13:13:34.735Z,25.10
2022-08-08T13:16:25.605Z,24.90
2022-08-08T13:19:05.454Z,24.90
2022-08-08T13:21:53.784Z,25.00
2022-08-08T13:24:40.904Z,25.10
2022-08-08T13:27:35.564Z,25.10
2022-08-08T13:30:06.386Z,24.90
2022-08-08T13:32:39.484Z,24.70
2022-08-08T13:35:11.737Z,24.60
2022-08-08T13:38:06.391Z,24.60
2022-08-08T13:40:35.213Z,24.80
2022-08-08T13:43:03.922Z,24.90
2022-08-08T13:45:31.485Z,25.00
2022-08-08T13:48:03.796Z,25.00
2022-08-08T13:50:49.215Z,25.00
2022-08-08T13:53:34.110Z,25.20
2022-08-08T13:56:11.037Z,25.30
2022-08-08T13:58:57.222Z,25.40
2022-08-08T14:01:32.722Z,25.50
2022-08-08T14:04:21.546Z,25.50
2022-08-08T14:06:48.508Z,25.40
2022-08-08T14:09:24.487Z,25.30
2022-08-08T14:12:00.286Z,25.30
2022-08-08T14:14:56.539Z,25.40
2022-08-08T14:17:57.907Z,25.40
2022-08-08T14:20:15.660Z,25.60
2022-08-08T14:23:20.720Z,25.60
2022-08-08T14:26:11.042Z,25.40
2022-08-08T14:28:39.961Z,25.10
2022-08-08T14:31:09.677Z,24.80
2022-08-08T14:33:37.328Z,24.70
2022-08-08T14:36:13.510Z,24.60
2022-08-08T14:38:52.651Z,24.50
2022-08-08T14:41:53.691Z,24.50
2022-08-08T14:44:21.069Z,24.70
2022-08-08T14:47:00.343Z,24.90
2022-08-08T14:49:51.523Z,25.00
2022-08-08T14:52:21.561Z,25.20
2022-08-08T14:54:49.942Z,25.30
2022-08-08T14:57:17.211Z,25.40
2022-08-08T14:59:50.942Z,25.40
2022-08-08T15:02:25.800Z,25.50
2022-08-08T15:04:57.825Z,25.50
2022-08-08T15:07:40.261Z,25.40
2022-08-08T15:10:09.440Z,25.40
2022-08-08T15:12:37.483Z,25.40
2022-08-08T15:15:11.066Z,25.50
2022-08-08T15:17:46.463Z,25.60
2022-08-08T15:20:14.789Z,25.60
2022-08-08T15:22:44.680Z,25.60
2022-08-08T15:25:17.553Z,25.40
2022-08-08T15:28:04.300Z,25.20
2022-08-08T15:30:40.870Z,25.00
2022-08-08T15:33:08.936Z,25.00
2022-08-08T15:35:37.432Z,25.00
2022-08-08T15:38:09.862Z,25.10
2022-08-08T15:40:39.673Z,25.10
2022-08-08T15:43:35.257Z,25.00
2022-08-08T15:45:57.938Z,24.80
2022-08-08T15:48:29.900Z,24.60
2022-08-08T15:51:07.169Z,24.50
2022-08-08T15:53:48.912Z,24.30
2022-08-08T15:56:16.684Z,24.20
2022-08-08T15:58:48.629Z,24.20
2022-08-08T16:01:16.153Z,24.20
2022-08-08T16:03:42.968Z,24.20
2022-08-08T16:06:14.449Z,24.20
2022-08-08T16:13:01.178Z,24.10
2022-08-08T16:13:11.481Z,24.00
2022-08-08T16:14:33.409Z,23.80
2022-08-08T16:17:00.983Z,23.80
2022-08-08T16:19:30.249Z,23.80
2022-08-08T16:21:58.197Z,24.00
2022-08-08T16:24:25.011Z,24.10
2022-08-08T16:26:51.832Z,24.20
2022-08-08T16:29:23.823Z,24.30
2022-08-08T16:32:08.293Z,24.40
2022-08-08T16:34:39.708Z,24.40
2022-08-08T16:37:07.169Z,24.40
2022-08-08T16:40:02.253Z,24.40
2022-08-08T16:42:20.666Z,24.30
2022-08-08T16:44:54.469Z,24.30
2022-08-08T16:47:31.666Z,24.30
2022-08-08T16:50:14.043Z,24.30
2022-08-08T16:55:02.596Z,24.30
2022-08-08T16:55:52.855Z,24.30
2022-08-08T16:58:21.829Z,24.20
2022-08-08T17:00:52.942Z,24.20
2022-08-08T17:03:25.095Z,24.20
2022-08-08T17:06:35.573Z,24.10
2022-08-08T17:08:54.230Z,24.10
2022-08-08T17:11:20.927Z,24.10
2022-08-08T17:14:01.586Z,24.10
2022-08-08T17:16:29.156Z,24.10
2022-08-08T17:18:56.674Z,24.10
2022-08-08T17:21:26.265Z,24.10
2022-08-08T17:24:00.483Z,24.20
2022-08-08T17:26:29.775Z,24.20
2022-08-08T17:29:03.848Z,24.10
2022-08-08T17:31:44.743Z,24.10
2022-08-08T17:34:36.157Z,24.10
2022-08-08T17:37:03.852Z,24.10
2022-08-08T17:40:04.944Z,24.10
2022-08-08T17:42:23.052Z,24.00
2022-08-08T17:44:52.378Z,24.00
2022-08-08T17:47:23.877Z,23.90
2022-08-08T17:49:52.737Z,23.90
2022-08-08T17:52:22.982Z,23.90
2022-08-08T17:54:55.725Z,23.80
2022-08-08T17:57:23.483Z,23.80
2022-08-08T17:59:51.893Z,23.80
2022-08-08T18:02:28.627Z,23.80
2022-08-08T18:04:58.429Z,23.80
2022-08-08T18:08:02.573Z,23.80
2022-08-08T18:10:15.286Z,23.70
2022-08-08T18:12:44.467Z,23.80
2022-08-08T18:15:13.534Z,23.80
2022-08-08T18:18:09.094Z,23.90
2022-08-08T18:20:42.788Z,24.00
2022-08-08T18:23:15.288Z,24.10
2022-08-08T18:25:43.408Z,24.20
2022-08-08T18:28:12.912Z,24.30
2022-08-08T18:30:41.076Z,24.40
2022-08-08T18:33:10.632Z,24.50
2022-08-08T18:35:48.335Z,24.50
2022-08-08T18:38:17.017Z,24.60
2022-08-08T18:40:46.400Z,24.60
2022-08-08T18:43:14.880Z,24.70
2022-08-08T18:46:08.546Z,24.70
2022-08-08T18:48:30.173Z,24.70
2022-08-08T18:50:58.728Z,24.50
2022-08-08T18:54:00.256Z,24.30
2022-08-08T18:56:21.537Z,23.90
2022-08-08T18:58:49.422Z,23.50
2022-08-08T19:02:25.917Z,23.30
2022-08-08T19:04:10.891Z,23.00
2022-08-08T19:06:39.289Z,22.70
2022-08-08T19:09:12.973Z,22.60
2022-08-08T19:11:46.802Z,22.40
2022-08-08T19:14:20.549Z,22.30
2022-08-08T19:16:48.072Z,22.20
2022-08-08T19:19:15.380Z,22.00
2022-08-08T19:21:48.665Z,21.90
2022-08-08T19:24:34.148Z,21.90
2022-08-08T19:27:05.729Z,21.80
2022-08-08T19:29:34.623Z,21.70
2022-08-08T19:32:09.176Z,21.60
2022-08-08T19:34:41.599Z,21.50
2022-08-08T19:37:16.517Z,21.50
2022-08-08T19:39:45.620Z,21.50
2022-08-08T19:42:13.630Z,21.40
2022-08-08T19:44:45.365Z,21.40
2022-08-08T19:47:14.206Z,21.30
2022-08-08T19:49:43.630Z,21.30
2022-08-08T19:52:34.653Z,21.20
2022-08-08T19:55:12.725Z,21.20
2022-08-08T19:57:42.489Z,21.10
2022-08-08T20:00:30.213Z,21.10
2022-08-08T20:03:02.058Z,21.00
2022-08-08T20:06:14.053Z,20.90
2022-08-08T20:08:32.065Z,20.90
2022-08-08T20:11:00.674Z,20.90
2022-08-08T20:14:31.491Z,20.80
2022-08-08T20:16:20.439Z,20.80
2022-08-08T20:18:52.947Z,20.70
2022-08-08T20:21:25.812Z,20.70
2022-08-08T20:23:57.597Z,20.60
2022-08-08T20:26:27.489Z,20.60
2022-08-08T20:28:59.891Z,20.60
2022-08-08T20:31:28.248Z,20.50
2022-08-08T20:34:28.853Z,20.50
2022-08-08T20:37:03.097Z,20.50
2022-08-08T20:39:41.665Z,20.40
2022-08-08T20:42:20.590Z,20.40
2022-08-08T20:44:56.652Z,20.30
2022-08-08T20:47:26.062Z,20.30
2022-08-08T20:49:57.708Z,20.20
2022-08-08T20:52:27.793Z,20.20
2022-08-08T20:54:58.796Z,20.20
2022-08-08T20:57:27.087Z,20.10
2022-08-08T20:59:55.920Z,20.10
2022-08-08T21:02:25.686Z,20.10
2022-08-08T21:05:01.278Z,20.00
2022-08-08T21:07:47.607Z,20.00
2022-08-08T21:10:16.895Z,20.00
2022-08-08T21:12:44.538Z,19.90
2022-08-08T21:15:16.736Z,19.90
2022-08-08T21:18:00.707Z,19.80
2022-08-08T21:20:34.036Z,19.80
2022-08-08T21:23:02.529Z,19.70
2022-08-08T21:25:33.062Z,19.70
2022-08-08T21:28:14.458Z,19.70
2022-08-08T21:30:45.279Z,19.60
2022-08-08T21:33:16.989Z,19.60
2022-08-08T21:36:14.882Z,19.50
2022-08-08T21:38:31.205Z,19.50
2022-08-08T21:40:58.048Z,19.50
2022-08-08T21:43:33.243Z,19.40
2022-08-08T21:48:05.442Z,19.40
2022-08-08T21:48:53.562Z,19.40
2022-08-08T21:54:18.802Z,19.40
2022-08-08T21:54:32.111Z,19.30
2022-08-08T21:56:59.120Z,19.30
2022-08-08T21:59:43.858Z,19.20
2022-08-08T22:02:15.842Z,19.20
2022-08-08T22:04:43.033Z,19.10
2022-08-08T22:07:09.743Z,19.10
2022-08-08T22:09:41.101Z,19.10
2022-08-08T22:12:17.002Z,19.10
2022-08-08T22:14:49.977Z,19.10
2022-08-08T22:17:18.336Z,19.00
2022-08-08T22:20:13.045Z,19.00
2022-08-08T22:22:37.965Z,18.90
2022-08-08T22:25:12.431Z,18.90
2022-08-08T22:28:02.887Z,18.90
2022-08-08T22:30:39.563Z,18.80
2022-08-08T22:33:22.252Z,18.80
2022-08-08T22:36:04.611Z,18.80
2022-08-08T22:38:47.853Z,18.80
2022-08-08T22:41:16.419Z,18.70
2022-08-08T22:44:02.786Z,18.70
2022-08-08T22:46:33.031Z,18.70
2022-08-08T22:49:00.168Z,18.70
2022-08-08T22:51:28.951Z,18.70
2022-08-08T22:54:32.026Z,18.70
2022-08-08T22:56:43.229Z,18.70
2022-08-08T22:59:18.595Z,18.60
2022-08-08T23:02:03.713Z,18.60
2022-08-08T23:04:33.476Z,18.60
2022-08-08T23:07:02.800Z,18.50
2022-08-08T23:09:31.189Z,18.50
2022-08-08T23:12:28.308Z,18.50
2022-08-08T23:14:59.960Z,18.50
2022-08-08T23:17:46.881Z,18.50
2022-08-08T23:20:21.176Z,18.50
2022-08-08T23:22:55.065Z,18.40
2022-08-08T23:25:22.059Z,18.50
2022-08-08T23:27:49.257Z,18.40
2022-08-08T23:30:22.489Z,18.40
2022-08-08T23:32:49.918Z,18.40
2022-08-08T23:35:18.836Z,18.40
2022-08-08T23:38:01.086Z,18.30
2022-08-08T23:40:29.506Z,18.30
2022-08-08T23:42:57.082Z,18.30
2022-08-08T23:49:01.303Z,18.30
2022-08-08T23:49:04.182Z,18.30
2022-08-08T23:50:58.427Z,18.30
2022-08-08T23:54:05.561Z,18.20
2022-08-08T23:56:12.645Z,18.20
2022-08-08T23:58:39.622Z,18.20
